Time;durP1;ratioP1;P1;durP2;ratioP2;P2;SDS_P1;SDS_P2;PMS_P1;PMS_P2;Temp;Humidity;BMP_temperature;BMP_pressure;BME280_temperature;BME280_humidity;BME280_pressure;Samples;Min_cycle;Max_cycle;Signal;HPM_P1;HPM_P2
2022/07/02 00:00:25;;;;;;;2.60;1.80;;;26.40;60.00;;;;;;221047;1269;24210;-47
2022/07/02 00:05:47;;;;;;;3.20;1.70;;;26.40;60.10;;;;;;220735;1268;24284;-48
2022/07/02 00:10:51;;;;;;;2.20;1.60;;;26.40;60.00;;;;;;220397;1269;22807;-50
2022/07/02 00:15:54;;;;;;;2.90;1.70;;;26.50;60.20;;;;;;220596;1268;22785;-48
2022/07/02 00:20:57;;;;;;;2.30;1.70;;;26.50;60.60;;;;;;220391;1269;22574;-51
2022/07/02 00:26:12;;;;;;;3.00;1.80;;;26.50;60.20;;;;;;220837;1268;25366;-49
2022/07/02 00:31:25;;;;;;;2.60;1.70;;;26.50;60.30;;;;;;220732;1268;22764;-48
2022/07/02 00:36:31;;;;;;;3.80;1.80;;;26.50;60.50;;;;;;220839;1270;22552;-50
2022/07/02 00:41:35;;;;;;;2.40;1.80;;;26.50;60.60;;;;;;221113;1270;22717;-49
2022/07/02 00:46:38;;;;;;;2.40;1.80;;;26.60;60.90;;;;;;220890;1269;25532;-49
2022/07/02 00:51:42;;;;;;;3.30;1.80;;;26.60;60.90;;;;;;220807;1268;23153;-49
2022/07/02 00:56:46;;;;;;;2.20;1.70;;;26.60;61.10;;;;;;220677;1269;24299;-48
2022/07/02 01:01:49;;;;;;;3.20;2.10;;;26.60;61.30;;;;;;220917;1270;24376;-49
2022/07/02 01:06:53;;;;;;;3.00;2.40;;;26.60;62.00;;;;;;225042;1269;24215;-48
2022/07/02 01:11:58;;;;;;;2.30;1.80;;;26.60;61.80;;;;;;221048;1270;22573;-49
2022/07/02 01:17:00;;;;;;;2.40;1.90;;;26.70;61.70;;;;;;220709;1268;22655;-50
2022/07/02 01:22:23;;;;;;;2.70;1.90;;;26.70;61.70;;;;;;220542;1268;357487;-51
2022/07/02 01:27:25;;;;;;;2.60;2.00;;;26.70;61.70;;;;;;220756;1265;22553;-49
2022/07/02 01:32:28;;;;;;;3.50;2.40;;;26.70;61.80;;;;;;220836;1268;24273;-50
2022/07/02 01:37:40;;;;;;;3.20;2.20;;;26.70;61.90;;;;;;221055;1268;22534;-54
2022/07/02 01:42:42;;;;;;;2.50;2.20;;;26.80;62.00;;;;;;220583;1268;22637;-48
2022/07/02 01:47:45;;;;;;;2.90;2.10;;;26.80;61.50;;;;;;220428;1265;22586;-51
2022/07/02 01:52:48;;;;;;;3.00;2.10;;;26.80;61.30;;;;;;220898;1265;24296;-49
2022/07/02 01:57:51;;;;;;;2.50;2.10;;;26.80;61.20;;;;;;220732;1268;24303;-49
2022/07/02 02:02:53;;;;;;;2.30;1.80;;;26.80;61.10;;;;;;220974;1265;24328;-52
2022/07/02 02:07:56;;;;;;;2.60;2.00;;;26.70;60.90;;;;;;220668;1270;22560;-48
2022/07/02 02:12:59;;;;;;;2.20;1.60;;;26.70;60.90;;;;;;220814;1268;22580;-47
2022/07/02 02:18:02;;;;;;;2.50;2.00;;;26.60;60.80;;;;;;220853;1270;22573;-53
2022/07/02 02:23:05;;;;;;;2.40;1.60;;;26.60;60.50;;;;;;220622;1265;22747;-47
2022/07/02 02:28:08;;;;;;;2.50;1.70;;;26.60;60.60;;;;;;220167;1268;22564;-52
2022/07/02 02:33:10;;;;;;;3.60;1.90;;;26.60;60.00;;;;;;220787;1268;24259;-48
2022/07/02 02:38:12;;;;;;;2.50;1.80;;;26.60;60.10;;;;;;220791;1268;26599;-48
2022/07/02 02:43:14;;;;;;;3.20;1.80;;;26.60;59.50;;;;;;220965;1268;24254;-49
2022/07/02 02:48:17;;;;;;;2.60;1.70;;;26.60;59.70;;;;;;220885;1268;25318;-50
2022/07/02 02:53:19;;;;;;;3.00;1.80;;;26.60;59.60;;;;;;220969;1269;24398;-51
2022/07/02 02:58:21;;;;;;;2.30;2.00;;;26.60;59.40;;;;;;220476;1265;24199;-51
2022/07/02 03:03:24;;;;;;;3.50;1.70;;;26.50;59.20;;;;;;220375;1265;22588;-51
2022/07/02 03:08:26;;;;;;;2.70;1.80;;;26.60;59.10;;;;;;220739;1268;22557;-49
2022/07/02 03:13:29;;;;;;;3.20;1.80;;;26.50;58.90;;;;;;221172;1268;24342;-51
2022/07/02 03:18:31;;;;;;;3.80;1.80;;;26.50;58.90;;;;;;220824;1265;24437;-48
2022/07/02 03:23:34;;;;;;;2.20;1.80;;;26.50;58.80;;;;;;220706;1268;22589;-49
2022/07/02 03:28:36;;;;;;;2.80;1.70;;;26.50;58.90;;;;;;220942;1265;22554;-48
2022/07/02 03:33:38;;;;;;;3.60;1.80;;;26.50;58.80;;;;;;220372;1268;23932;-49
2022/07/02 03:38:41;;;;;;;4.10;1.80;;;26.50;59.00;;;;;;220772;1268;22571;-50
2022/07/02 03:43:43;;;;;;;2.70;1.80;;;26.40;58.70;;;;;;220556;1268;24249;-49
2022/07/02 03:48:46;;;;;;;3.30;1.80;;;26.40;58.50;;;;;;228422;1268;22419;-46
2022/07/02 03:53:48;;;;;;;3.80;2.00;;;26.40;58.50;;;;;;227071;1265;23165;-48
2022/07/02 03:58:51;;;;;;;4.50;2.00;;;26.50;58.60;;;;;;220629;1268;22583;-49
2022/07/02 04:03:53;;;;;;;2.50;1.80;;;26.50;58.30;;;;;;220598;1268;24287;-50
2022/07/02 04:08:56;;;;;;;2.80;2.20;;;26.40;58.20;;;;;;221063;1266;24258;-50
2022/07/02 04:13:59;;;;;;;3.60;1.80;;;26.40;58.40;;;;;;220925;1267;22553;-52
2022/07/02 04:19:01;;;;;;;2.80;1.70;;;26.40;58.20;;;;;;220402;1268;25400;-50
2022/07/02 04:24:18;;;;;;;3.60;1.90;;;26.40;58.70;;;;;;220970;1268;22552;-49
2022/07/02 04:29:20;;;;;;;3.20;1.90;;;26.40;58.70;;;;;;220816;1268;22700;-50
2022/07/02 04:34:22;;;;;;;3.80;1.90;;;26.40;58.50;;;;;;220402;1268;24371;-53
2022/07/02 04:39:25;;;;;;;2.50;1.90;;;26.40;58.80;;;;;;220621;1265;24282;-47
2022/07/02 04:44:28;;;;;;;4.20;2.30;;;26.30;58.60;;;;;;221097;1265;25256;-49
2022/07/02 04:49:36;;;;;;;3.30;2.20;;;26.30;58.40;;;;;;221072;1265;22555;-48
2022/07/02 04:54:39;;;;;;;3.30;1.90;;;26.30;58.30;;;;;;220827;1265;24310;-48
2022/07/02 04:59:44;;;;;;;2.80;2.10;;;26.30;58.30;;;;;;220656;1265;22581;-52
2022/07/02 05:04:48;;;;;;;3.20;2.20;;;26.30;58.20;;;;;;220350;1268;22600;-48
2022/07/02 05:09:57;;;;;;;3.60;1.90;;;26.30;58.10;;;;;;220517;1268;22547;-48
2022/07/02 05:15:01;;;;;;;3.70;2.40;;;26.30;58.20;;;;;;220385;1267;22548;-50
2022/07/02 05:20:05;;;;;;;3.10;2.20;;;26.30;57.90;;;;;;220841;1267;25287;-53
2022/07/02 05:25:13;;;;;;;2.70;2.00;;;26.20;58.30;;;;;;220849;1265;23905;-49
2022/07/02 05:30:16;;;;;;;3.00;2.00;;;26.30;58.10;;;;;;220672;1268;22590;-49
2022/07/02 05:35:19;;;;;;;2.10;1.90;;;26.30;57.90;;;;;;220396;1268;22990;-49
2022/07/02 05:40:21;;;;;;;2.80;1.60;;;26.30;58.10;;;;;;220669;1268;22555;-54
2022/07/02 05:45:24;;;;;;;3.50;1.80;;;26.30;58.50;;;;;;220690;1267;24280;-49
2022/07/02 05:50:27;;;;;;;4.10;1.40;;;26.30;58.20;;;;;;220473;1265;22690;-48
2022/07/02 05:55:32;;;;;;;2.60;1.80;;;26.30;58.40;;;;;;220574;1268;22711;-52
2022/07/02 06:00:35;;;;;;;2.60;1.80;;;26.30;58.40;;;;;;220975;1268;24272;-47
2022/07/02 06:10:58;;;;;;;2.20;1.50;;;26.30;57.70;;;;;;220529;1268;22557;-49
2022/07/02 06:16:00;;;;;;;2.60;1.70;;;26.30;58.00;;;;;;220592;1268;22580;-53
2022/07/02 06:21:03;;;;;;;2.70;1.80;;;26.30;57.90;;;;;;221014;1265;25252;-48
2022/07/02 06:26:05;;;;;;;3.80;1.90;;;26.30;58.40;;;;;;220532;1265;22546;-48
2022/07/02 06:31:08;;;;;;;2.50;1.80;;;26.20;57.70;;;;;;220884;1267;24240;-50
2022/07/02 06:36:14;;;;;;;2.60;1.90;;;26.30;58.00;;;;;;220531;1268;22540;-52
2022/07/02 06:46:38;;;;;;;2.10;1.70;;;26.30;57.90;;;;;;220646;1268;22557;-50
2022/07/02 06:51:41;;;;;;;2.80;2.00;;;26.30;57.80;;;;;;220913;1268;24356;-50
2022/07/02 06:56:45;;;;;;;2.50;1.80;;;26.30;58.30;;;;;;220687;1268;24306;-49
2022/07/02 07:01:47;;;;;;;2.30;1.70;;;26.30;58.20;;;;;;220597;1266;24222;-51
2022/07/02 07:07:10;;;;;;;2.50;1.50;;;26.30;58.40;;;;;;220244;1268;22691;-49
2022/07/02 07:12:13;;;;;;;2.50;1.70;;;26.30;58.10;;;;;;220642;1268;22555;-49
2022/07/02 07:17:16;;;;;;;3.40;1.90;;;26.30;58.10;;;;;;221099;1268;22695;-48
2022/07/02 07:22:19;;;;;;;2.60;1.70;;;26.30;57.90;;;;;;220585;1268;22538;-49
2022/07/02 07:27:25;;;;;;;4.50;1.70;;;26.30;57.80;;;;;;220996;1265;22554;-50
2022/07/02 07:32:29;;;;;;;5.40;1.50;;;26.40;57.80;;;;;;220142;1268;22568;-50
2022/07/02 07:37:35;;;;;;;3.90;1.60;;;26.40;58.10;;;;;;220520;1268;24271;-55
2022/07/02 07:42:39;;;;;;;2.60;1.60;;;26.30;56.50;;;;;;220407;1268;24404;-49
2022/07/02 07:47:41;;;;;;;5.70;1.70;;;26.30;57.60;;;;;;220878;1268;23948;-47
2022/07/02 07:52:45;;;;;;;5.00;1.80;;;26.40;58.30;;;;;;220461;1268;22539;-51
2022/07/02 07:57:49;;;;;;;4.80;1.90;;;26.50;58.00;;;;;;220549;1268;22842;-50
2022/07/02 08:02:55;;;;;;;6.10;1.50;;;26.50;58.00;;;;;;220805;1265;22576;-47
2022/07/02 08:07:58;;;;;;;5.00;1.50;;;26.50;58.00;;;;;;221068;1265;24401;-50
2022/07/02 08:13:00;;;;;;;4.10;1.60;;;26.60;58.30;;;;;;220612;1268;22613;-55
2022/07/02 08:18:02;;;;;;;4.30;1.70;;;26.70;58.40;;;;;;220745;1268;22651;-52
2022/07/02 08:23:05;;;;;;;4.70;1.80;;;26.80;58.30;;;;;;220601;1267;22544;-51
2022/07/02 08:28:13;;;;;;;5.50;1.80;;;26.70;58.00;;;;;;220746;1265;22539;-52
2022/07/02 08:33:16;;;;;;;3.40;1.60;;;26.80;58.10;;;;;;220995;1268;22574;-51
2022/07/02 08:38:18;;;;;;;3.70;1.60;;;26.80;58.00;;;;;;220312;1267;22561;-50
2022/07/02 08:43:26;;;;;;;3.70;1.40;;;26.80;58.00;;;;;;220405;1265;24244;-54
2022/07/02 08:48:33;;;;;;;4.90;1.50;;;26.80;57.60;;;;;;220822;1268;25324;-50
2022/07/02 08:53:41;;;;;;;4.60;1.60;;;26.70;55.00;;;;;;220528;1268;25537;-53
2022/07/02 08:58:50;;;;;;;;;;;26.50;53.30;;;;;;220429;1265;24201;-48
2022/07/02 09:03:54;;;;;;;6.10;1.40;;;26.50;54.10;;;;;;220153;1267;22991;-49
2022/07/02 09:08:58;;;;;;;2.70;1.20;;;26.40;53.20;;;;;;220847;1268;22554;-47
2022/07/02 09:14:04;;;;;;;4.50;1.40;;;26.30;52.00;;;;;;220856;1268;22556;-49
2022/07/02 09:19:09;;;;;;;2.30;1.00;;;26.30;49.70;;;;;;220661;1268;22684;-47
2022/07/02 09:24:25;;;;;;;3.80;1.10;;;26.10;48.80;;;;;;219861;1267;22654;-46
2022/07/02 09:29:39;;;;;;;2.00;1.10;;;26.00;49.50;;;;;;220113;1268;24218;-46
2022/07/02 09:34:49;;;;;;;2.80;1.50;;;26.10;50.10;;;;;;220662;1265;22563;-50
2022/07/02 09:40:00;;;;;;;2.90;1.40;;;26.20;50.20;;;;;;220522;1268;25077;-52
2022/07/02 09:45:11;;;;;;;2.40;1.50;;;26.10;49.80;;;;;;220411;1265;22613;-49
2022/07/02 09:50:16;;;;;;;2.70;1.40;;;26.00;50.30;;;;;;220218;1265;22557;-52
2022/07/02 09:55:20;;;;;;;3.50;1.40;;;26.00;50.10;;;;;;220602;1268;25234;-53
2022/07/02 10:00:25;;;;;;;2.90;1.40;;;26.00;50.40;;;;;;220904;1265;22559;-49
2022/07/02 10:05:35;;;;;;;5.90;1.50;;;26.00;50.10;;;;;;220448;1267;22558;-51
2022/07/02 10:10:40;;;;;;;3.10;1.50;;;25.90;50.20;;;;;;220500;1265;22549;-51
2022/07/02 10:15:59;;;;;;;4.40;2.00;;;25.80;50.00;;;;;;220600;1265;22704;-51
2022/07/02 10:21:27;;;;;;;3.00;1.20;;;25.80;49.80;;;;;;220838;1268;22904;-49
2022/07/02 10:27:01;;;;;;;3.90;1.80;;;25.80;49.60;;;;;;220275;1265;22673;-51
2022/07/02 10:32:32;;;;;;;7.00;1.70;;;25.80;49.60;;;;;;220772;1265;22569;-48
2022/07/02 10:37:39;;;;;;;2.30;1.50;;;25.70;49.50;;;;;;220517;1267;24397;-49
2022/07/02 10:43:11;;;;;;;4.20;1.40;;;25.80;49.50;;;;;;220322;1267;24314;-48
2022/07/02 10:48:28;;;;;;;5.60;1.50;;;25.80;49.40;;;;;;220680;1268;25318;-50
2022/07/02 10:53:34;;;;;;;4.70;1.40;;;26.00;49.00;;;;;;220470;1268;24379;-51
2022/07/02 10:58:48;;;;;;;6.50;1.50;;;26.10;48.30;;;;;;220697;1268;22558;-52
2022/07/02 11:04:21;;;;;;;2.90;1.40;;;26.00;48.80;;;;;;220044;1267;24360;-51
2022/07/02 11:09:24;;;;;;;4.50;1.30;;;26.10;48.70;;;;;;222239;1265;23939;-52
2022/07/02 11:14:29;;;;;;;8.50;1.70;;;26.20;48.90;;;;;;221118;1265;23480;-49
2022/07/02 11:19:32;;;;;;;4.40;1.30;;;26.40;48.40;;;;;;221104;1265;22675;-52
2022/07/02 11:24:38;;;;;;;4.00;1.40;;;26.40;48.20;;;;;;220493;1268;23933;-51
2022/07/02 11:29:55;;;;;;;7.30;1.60;;;26.20;48.50;;;;;;220965;1268;24077;-50
2022/07/02 11:35:02;;;;;;;6.90;1.60;;;26.40;48.90;;;;;;220882;1265;24315;-55
2022/07/02 11:40:21;;;;;;;3.30;1.70;;;26.50;48.00;;;;;;220900;1268;24277;-48
2022/07/02 11:45:23;;;;;;;7.80;1.70;;;26.50;47.20;;;;;;220505;1265;26616;-51
2022/07/02 11:50:33;;;;;;;6.00;1.40;;;26.60;47.20;;;;;;220725;1268;22553;-51
2022/07/02 11:55:39;;;;;;;4.30;1.50;;;26.60;46.90;;;;;;220799;1265;22776;-52
2022/07/02 12:00:42;;;;;;;3.90;1.40;;;26.40;46.90;;;;;;221100;1265;25351;-49
2022/07/02 12:05:51;;;;;;;5.00;1.60;;;26.40;47.10;;;;;;220676;1265;22556;-46
2022/07/02 12:10:53;;;;;;;9.00;1.60;;;26.40;47.70;;;;;;221219;1268;26874;-50
2022/07/02 12:15:56;;;;;;;5.60;1.40;;;26.50;47.00;;;;;;220800;1268;22730;-48
2022/07/02 12:21:14;;;;;;;6.30;1.60;;;26.40;46.90;;;;;;220591;1268;22672;-48
2022/07/02 12:26:23;;;;;;;11.10;1.80;;;26.20;47.20;;;;;;220950;1267;22538;-48
2022/07/02 12:31:26;;;;;;;7.80;1.60;;;26.30;46.90;;;;;;220622;1265;22535;-51
2022/07/02 12:36:28;;;;;;;20.20;1.80;;;26.20;46.90;;;;;;221026;1268;25477;-51
2022/07/02 12:41:38;;;;;;;8.60;2.00;;;26.40;47.60;;;;;;220805;1265;22576;-52
2022/07/02 12:46:56;;;;;;;8.70;2.00;;;26.40;46.40;;;;;;220402;1265;23823;-50
2022/07/02 12:52:01;;;;;;;3.30;1.60;;;26.30;46.80;;;;;;220318;1268;22708;-48
2022/07/02 12:57:33;;;;;;;3.50;1.20;;;26.00;47.20;;;;;;220476;1265;23289;-49
2022/07/02 13:02:35;;;;;;;5.40;1.50;;;25.80;47.10;;;;;;220184;1266;22544;-50
2022/07/02 13:07:39;;;;;;;4.30;1.60;;;25.80;46.70;;;;;;220657;1268;22531;-49
2022/07/02 13:12:42;;;;;;;2.80;1.40;;;25.90;46.40;;;;;;220740;1265;24073;-49
2022/07/02 13:17:45;;;;;;;1.90;1.20;;;26.10;46.10;;;;;;221001;1265;22839;-48
2022/07/02 13:22:51;;;;;;;3.70;1.40;;;26.00;45.60;;;;;;220927;1266;263044;-49
2022/07/02 13:27:55;;;;;;;4.90;1.40;;;26.10;45.50;;;;;;220996;1265;25443;-46
2022/07/02 13:33:00;;;;;;;4.40;1.40;;;26.10;45.80;;;;;;220508;1265;24079;-49
2022/07/02 13:38:08;;;;;;;2.50;1.40;;;26.00;46.60;;;;;;220796;1268;25235;-48
2022/07/02 13:43:15;;;;;;;5.70;1.60;;;26.00;46.30;;;;;;220650;1268;25306;-47
2022/07/02 13:48:27;;;;;;;3.10;1.50;;;26.00;46.00;;;;;;221082;1265;22639;-46
2022/07/02 13:53:29;;;;;;;2.30;1.20;;;26.00;46.30;;;;;;220845;1268;24240;-48
2022/07/02 13:58:31;;;;;;;3.90;1.20;;;26.00;46.60;;;;;;220825;1265;24303;-50
2022/07/02 14:03:34;;;;;;;2.70;1.30;;;26.00;46.40;;;;;;220516;1268;22549;-49
2022/07/02 14:08:36;;;;;;;4.40;1.50;;;26.00;46.40;;;;;;220432;1265;22698;-51
2022/07/02 14:13:39;;;;;;;3.40;1.40;;;25.90;46.40;;;;;;220482;1268;22547;-47
2022/07/02 14:18:42;;;;;;;3.10;1.50;;;26.00;46.00;;;;;;220963;1265;24362;-49
2022/07/02 14:23:44;;;;;;;2.40;1.30;;;26.10;45.70;;;;;;220572;1267;22631;-46
2022/07/02 14:28:46;;;;;;;2.10;1.20;;;26.00;45.80;;;;;;220586;1268;22579;-46
2022/07/02 14:33:49;;;;;;;2.10;1.20;;;25.90;45.80;;;;;;220863;1265;23720;-49
2022/07/02 14:38:51;;;;;;;4.00;1.50;;;25.90;46.10;;;;;;220837;1268;24341;-49
2022/07/02 14:43:53;;;;;;;4.60;1.50;;;26.00;45.90;;;;;;220720;1268;22549;-48
2022/07/02 14:48:57;;;;;;;2.10;1.30;;;25.90;45.40;;;;;;220819;1268;24215;-46
2022/07/02 14:53:59;;;;;;;3.80;1.40;;;25.90;45.40;;;;;;220947;1268;23903;-49
2022/07/02 14:59:11;;;;;;;3.10;1.30;;;25.90;46.00;;;;;;221058;1269;24251;-48
2022/07/02 15:04:14;;;;;;;2.60;1.40;;;25.90;45.30;;;;;;220762;1268;25254;-49
2022/07/02 15:09:16;;;;;;;3.80;1.60;;;25.90;45.30;;;;;;221000;1265;24399;-51
2022/07/02 15:19:50;;;;;;;3.00;1.30;;;26.00;44.90;;;;;;220142;1268;22535;-49
2022/07/02 15:24:55;;;;;;;3.90;1.50;;;25.80;45.50;;;;;;220399;1267;22532;-47
2022/07/02 15:29:58;;;;;;;2.30;1.30;;;25.70;45.40;;;;;;220645;1265;24210;-47
2022/07/02 15:35:04;;;;;;;2.40;1.30;;;25.70;45.40;;;;;;220466;1265;24778;-47
2022/07/02 15:40:08;;;;;;;3.20;1.50;;;25.70;45.30;;;;;;221102;1265;22536;-46
2022/07/02 15:45:16;;;;;;;3.90;1.40;;;25.70;45.30;;;;;;221041;1266;24273;-46
2022/07/02 15:50:19;;;;;;;2.30;1.30;;;25.70;44.70;;;;;;220781;1268;22706;-47
2022/07/02 15:55:35;;;;;;;3.20;1.50;;;25.70;44.20;;;;;;220462;1268;22547;-50
2022/07/02 16:00:39;;;;;;;4.80;1.30;;;25.70;44.10;;;;;;220983;1268;23034;-50
2022/07/02 16:05:42;;;;;;;2.90;1.30;;;25.70;43.80;;;;;;220587;1268;22693;-48
2022/07/02 16:10:44;;;;;;;5.20;1.40;;;25.70;43.60;;;;;;220584;1268;22574;-48
2022/07/02 16:15:48;;;;;;;2.80;1.30;;;25.70;44.10;;;;;;220612;1268;22535;-47
2022/07/02 16:20:50;;;;;;;2.40;1.40;;;25.70;44.20;;;;;;221151;1265;22544;-48
2022/07/02 16:25:52;;;;;;;3.10;1.30;;;25.70;44.90;;;;;;220972;1265;24304;-50
2022/07/02 16:30:58;;;;;;;2.80;1.60;;;25.80;45.10;;;;;;220507;1265;22573;-50
2022/07/02 16:36:05;;;;;;;3.40;1.40;;;25.80;45.60;;;;;;220515;1265;24220;-49
2022/07/02 16:41:09;;;;;;;2.70;1.40;;;25.90;45.70;;;;;;220470;1268;22556;-48
2022/07/02 16:46:16;;;;;;;3.00;1.40;;;25.80;46.00;;;;;;220655;1267;24303;-49
2022/07/02 16:51:26;;;;;;;2.30;1.30;;;25.80;45.90;;;;;;221116;1270;22567;-48
2022/07/02 16:56:28;;;;;;;2.90;1.80;;;25.80;46.00;;;;;;220950;1268;22537;-51
2022/07/02 17:01:33;;;;;;;5.10;2.10;;;25.80;46.00;;;;;;221064;1268;24373;-50
2022/07/02 17:06:36;;;;;;;2.90;1.80;;;25.80;45.90;;;;;;220664;1268;22684;-47
2022/07/02 17:11:45;;;;;;;2.20;1.50;;;25.70;45.90;;;;;;220580;1268;22708;-48
2022/07/02 17:16:48;;;;;;;4.30;1.90;;;25.70;45.80;;;;;;220902;1268;23144;-50
2022/07/02 17:21:50;;;;;;;5.50;1.90;;;25.70;45.90;;;;;;220643;1265;22545;-47
2022/07/02 17:26:53;;;;;;;2.80;1.50;;;25.70;45.80;;;;;;220783;1268;22544;-48
2022/07/02 17:31:59;;;;;;;2.90;1.60;;;25.70;45.90;;;;;;220945;1268;25190;-49
2022/07/02 17:37:02;;;;;;;4.20;2.20;;;25.70;46.10;;;;;;221079;1268;24286;-49
2022/07/02 17:42:05;;;;;;;5.20;1.90;;;25.80;46.00;;;;;;220557;1268;25372;-47
2022/07/02 17:47:07;;;;;;;4.10;2.00;;;25.80;46.00;;;;;;221044;1270;22540;-48
2022/07/02 17:52:09;;;;;;;3.80;1.90;;;25.90;46.40;;;;;;220837;1268;24222;-46
2022/07/02 17:57:18;;;;;;;5.20;1.90;;;25.90;46.70;;;;;;220890;1265;24212;-45
2022/07/02 18:02:25;;;;;;;3.50;1.90;;;25.90;46.80;;;;;;220592;1265;24177;-46
2022/07/02 18:07:29;;;;;;;5.10;2.00;;;25.80;47.10;;;;;;220579;1268;22549;-49
2022/07/02 18:12:34;;;;;;;3.70;1.80;;;25.80;46.80;;;;;;221011;1269;24281;-46
2022/07/02 18:17:37;;;;;;;4.50;2.20;;;25.80;47.10;;;;;;220629;1268;24302;-47
2022/07/02 18:22:40;;;;;;;4.00;1.80;;;25.80;47.20;;;;;;220976;1268;22581;-48
2022/07/02 18:27:42;;;;;;;3.90;2.00;;;25.90;47.30;;;;;;220836;1268;24315;-46
2022/07/02 18:32:45;;;;;;;4.40;1.60;;;25.90;47.40;;;;;;220870;1265;23259;-48
2022/07/02 18:37:48;;;;;;;2.70;1.80;;;25.90;47.50;;;;;;220575;1268;25408;-50
2022/07/02 18:42:50;;;;;;;3.70;1.90;;;25.90;47.90;;;;;;220688;1268;22574;-46
2022/07/02 18:47:53;;;;;;;3.10;1.60;;;25.80;47.60;;;;;;220858;1268;22538;-46
2022/07/02 18:53:00;;;;;;;3.20;1.60;;;25.80;47.60;;;;;;220222;1268;22666;-49
2022/07/02 18:58:09;;;;;;;3.70;1.80;;;25.80;47.70;;;;;;220479;1268;22571;-45
2022/07/02 19:03:12;;;;;;;3.40;1.80;;;25.80;48.00;;;;;;220732;1270;24448;-51
2022/07/02 19:08:16;;;;;;;3.70;2.00;;;25.80;48.00;;;;;;220691;1270;25713;-46
2022/07/02 19:13:19;;;;;;;4.40;1.90;;;25.80;48.20;;;;;;220708;1268;22532;-48
2022/07/02 19:18:22;;;;;;;3.80;1.70;;;25.80;48.40;;;;;;220544;1268;25436;-51
2022/07/02 19:23:27;;;;;;;3.90;1.80;;;25.90;48.60;;;;;;220478;1267;22550;-47
2022/07/02 19:33:53;;;;;;;4.90;2.10;;;25.80;49.10;;;;;;221097;1268;24238;-47
2022/07/02 19:38:58;;;;;;;4.60;2.70;;;25.80;49.20;;;;;;220413;1268;24279;-48
2022/07/02 19:44:01;;;;;;;6.20;2.80;;;25.70;49.50;;;;;;221069;1268;24010;-46
2022/07/02 19:49:06;;;;;;;3.90;2.40;;;25.70;50.00;;;;;;220913;1268;24299;-48
2022/07/02 19:54:09;;;;;;;4.20;2.70;;;25.60;49.80;;;;;;220301;1270;23495;-47
2022/07/02 19:59:15;;;;;;;6.30;2.60;;;25.70;49.90;;;;;;220570;1265;25396;-48
2022/07/02 20:04:20;;;;;;;5.80;2.50;;;25.60;49.70;;;;;;220451;1268;26544;-47
2022/07/02 20:09:22;;;;;;;12.80;2.50;;;25.60;50.50;;;;;;221016;1268;22565;-52
2022/07/02 20:14:26;;;;;;;8.70;3.00;;;25.60;50.40;;;;;;220586;1268;23002;-48
2022/07/02 20:19:34;;;;;;;16.40;3.20;;;25.50;50.00;;;;;;220462;1268;26466;-48
2022/07/02 20:24:39;;;;;;;8.90;3.10;;;25.20;51.30;;;;;;220415;1267;24232;-45
2022/07/02 20:29:42;;;;;;;9.10;3.00;;;25.00;51.90;;;;;;221062;1266;22697;-46
2022/07/02 20:34:47;;;;;;;8.60;3.10;;;24.80;52.40;;;;;;220893;1269;24208;-46
2022/07/02 20:39:51;;;;;;;5.80;3.10;;;24.70;52.90;;;;;;221069;1268;24453;-48
2022/07/02 20:44:57;;;;;;;5.90;3.00;;;24.80;52.60;;;;;;221036;1268;22549;-48
2022/07/02 20:50:02;;;;;;;5.20;3.20;;;24.90;52.40;;;;;;221181;1268;25214;-49
2022/07/02 20:55:09;;;;;;;8.60;2.80;;;25.10;52.10;;;;;;220535;1268;22794;-51
2022/07/02 21:00:19;;;;;;;9.80;3.00;;;25.30;52.20;;;;;;220773;1268;22581;-52
2022/07/02 21:05:31;;;;;;;7.70;3.20;;;25.50;52.20;;;;;;220644;1268;25420;-48
2022/07/02 21:10:38;;;;;;;6.20;2.60;;;25.60;52.20;;;;;;220268;1268;22578;-50
2022/07/02 21:15:47;;;;;;;12.00;3.30;;;25.60;54.30;;;;;;220606;1268;24443;-49
2022/07/02 21:20:58;;;;;;;9.20;2.80;;;25.70;54.50;;;;;;220691;1268;22554;-49
2022/07/02 21:26:11;;;;;;;10.70;2.70;;;25.70;53.80;;;;;;220623;1265;22630;-49
2022/07/02 21:31:13;;;;;;;5.00;2.70;;;25.80;53.20;;;;;;220327;1268;22858;-46
2022/07/02 21:36:16;;;;;;;11.50;3.50;;;25.80;53.70;;;;;;220924;1265;22569;-49
2022/07/02 21:41:18;;;;;;;7.60;2.50;;;25.90;53.50;;;;;;220261;1268;22538;-48
2022/07/02 21:46:23;;;;;;;5.10;2.70;;;25.90;53.40;;;;;;220759;1268;22554;-48
2022/07/02 21:51:26;;;;;;;9.00;2.80;;;25.90;53.40;;;;;;220927;1268;22546;-49
2022/07/02 21:56:30;;;;;;;4.80;2.70;;;26.00;53.50;;;;;;220515;1265;24405;-48
2022/07/02 22:01:50;;;;;;;4.40;2.50;;;26.00;53.50;;;;;;220692;1269;22678;-49
2022/07/02 22:07:13;;;;;;;4.20;2.70;;;26.00;53.90;;;;;;220182;1268;25336;-47
2022/07/02 22:12:44;;;;;;;4.40;2.50;;;26.00;53.60;;;;;;220689;1267;24276;-49
2022/07/02 22:17:46;;;;;;;4.60;2.70;;;26.00;53.70;;;;;;220633;1268;22680;-47
2022/07/02 22:22:50;;;;;;;5.90;2.40;;;26.00;53.70;;;;;;220312;1268;22556;-48
2022/07/02 22:28:03;;;;;;;4.00;2.10;;;26.10;53.80;;;;;;220589;1268;22602;-49
2022/07/02 22:33:09;;;;;;;4.50;2.20;;;26.10;53.90;;;;;;220810;1268;22582;-49
2022/07/02 22:38:12;;;;;;;4.30;2.60;;;26.10;53.90;;;;;;220486;1268;22542;-49
2022/07/02 22:43:20;;;;;;;5.40;2.60;;;26.10;54.00;;;;;;220765;1268;25357;-47
2022/07/02 22:48:25;;;;;;;4.30;2.40;;;26.10;53.90;;;;;;220723;1268;23019;-50
2022/07/02 22:53:27;;;;;;;3.40;2.30;;;26.10;53.90;;;;;;220723;1268;22557;-48
2022/07/02 22:58:34;;;;;;;8.50;2.70;;;26.10;54.00;;;;;;220623;1268;23075;-48
2022/07/02 23:03:37;;;;;;;3.50;2.50;;;26.10;54.00;;;;;;220237;1268;24275;-47
2022/07/02 23:08:40;;;;;;;5.20;2.70;;;26.10;54.10;;;;;;220890;1270;22706;-49
2022/07/02 23:13:42;;;;;;;7.20;2.80;;;26.10;54.00;;;;;;220769;1268;22534;-47
2022/07/02 23:18:44;;;;;;;4.10;2.30;;;26.20;54.10;;;;;;220573;1268;22752;-49
2022/07/02 23:23:47;;;;;;;6.20;2.30;;;26.10;54.00;;;;;;223310;1268;22545;-49
2022/07/02 23:28:49;;;;;;;3.50;2.20;;;26.10;54.30;;;;;;220790;1265;24419;-49
2022/07/02 23:33:52;;;;;;;3.60;2.50;;;26.10;54.20;;;;;;220814;1266;25302;-48
2022/07/02 23:38:54;;;;;;;3.60;2.00;;;26.10;54.30;;;;;;220734;1268;22570;-50
2022/07/02 23:43:56;;;;;;;4.40;2.70;;;26.10;54.50;;;;;;220991;1268;22769;-50
2022/07/02 23:48:59;;;;;;;5.60;2.50;;;26.10;54.80;;;;;;220634;1268;25366;-47
2022/07/02 23:54:02;;;;;;;3.20;2.20;;;26.00;54.10;;;;;;220747;1268;25252;-50
2022/07/02 23:59:04;;;;;;;4.10;2.40;;;26.10;54.70;;;;;;220540;1267;24306;-49
